sensor_id;sensor_type;location;lat;lon;timestamp;P1;durP1;ratioP1;P2;durP2;ratioP2
2099;SDS011;1055;48.854;9.302;2023-04-28T00:01:42;11.65;;;6.45;;
2099;SDS011;1055;48.854;9.302;2023-04-28T00:04:07;11.30;;;5.57;;
2099;SDS011;1055;48.854;9.302;2023-04-28T00:06:33;10.23;;;5.43;;
2099;SDS011;1055;48.854;9.302;2023-04-28T00:08:59;9.50;;;6.23;;
2099;SDS011;1055;48.854;9.302;2023-04-28T00:11:24;10.50;;;6.67;;
2099;SDS011;1055;48.854;9.302;2023-04-28T00:13:50;11.87;;;6.70;;
2099;SDS011;1055;48.854;9.302;2023-04-28T00:16:16;12.53;;;6.60;;
2099;SDS011;1055;48.854;9.302;2023-04-28T00:18:41;9.30;;;6.47;;
2099;SDS011;1055;48.854;9.302;2023-04-28T00:21:07;12.43;;;5.67;;
2099;SDS011;1055;48.854;9.302;2023-04-28T00:23:33;13.57;;;5.87;;
2099;SDS011;1055;48.854;9.302;2023-04-28T00:25:59;9.48;;;5.90;;
2099;SDS011;1055;48.854;9.302;2023-04-28T00:28:25;9.20;;;5.97;;
2099;SDS011;1055;48.854;9.302;2023-04-28T00:30:50;9.87;;;6.00;;
2099;SDS011;1055;48.854;9.302;2023-04-28T00:33:16;9.73;;;6.00;;
2099;SDS011;1055;48.854;9.302;2023-04-28T00:35:41;9.93;;;5.23;;
2099;SDS011;1055;48.854;9.302;2023-04-28T00:38:07;9.77;;;5.40;;
2099;SDS011;1055;48.854;9.302;2023-04-28T00:40:33;9.80;;;5.20;;
2099;SDS011;1055;48.854;9.302;2023-04-28T00:42:59;8.90;;;5.30;;
2099;SDS011;1055;48.854;9.302;2023-04-28T00:45:25;10.57;;;5.90;;
2099;SDS011;1055;48.854;9.302;2023-04-28T00:47:51;8.63;;;5.60;;
2099;SDS011;1055;48.854;9.302;2023-04-28T00:50:16;13.47;;;5.70;;
2099;SDS011;1055;48.854;9.302;2023-04-28T00:52:42;8.40;;;5.60;;
2099;SDS011;1055;48.854;9.302;2023-04-28T00:55:08;8.47;;;5.03;;
2099;SDS011;1055;48.854;9.302;2023-04-28T00:57:34;11.20;;;5.47;;
2099;SDS011;1055;48.854;9.302;2023-04-28T01:00:01;8.77;;;5.60;;
2099;SDS011;1055;48.854;9.302;2023-04-28T01:02:27;9.03;;;5.57;;
2099;SDS011;1055;48.854;9.302;2023-04-28T01:04:54;11.00;;;5.90;;
2099;SDS011;1055;48.854;9.302;2023-04-28T01:07:21;9.70;;;5.97;;
2099;SDS011;1055;48.854;9.302;2023-04-28T01:09:46;10.30;;;6.07;;
2099;SDS011;1055;48.854;9.302;2023-04-28T01:12:12;9.43;;;5.77;;
2099;SDS011;1055;48.854;9.302;2023-04-28T01:14:38;9.90;;;6.40;;
2099;SDS011;1055;48.854;9.302;2023-04-28T01:17:03;14.83;;;6.53;;
2099;SDS011;1055;48.854;9.302;2023-04-28T01:19:30;10.63;;;6.50;;
2099;SDS011;1055;48.854;9.302;2023-04-28T01:21:55;8.70;;;5.47;;
2099;SDS011;1055;48.854;9.302;2023-04-28T01:24:21;8.63;;;5.07;;
2099;SDS011;1055;48.854;9.302;2023-04-28T01:26:47;10.00;;;5.67;;
2099;SDS011;1055;48.854;9.302;2023-04-28T01:29:12;10.93;;;5.70;;
2099;SDS011;1055;48.854;9.302;2023-04-28T01:31:38;10.70;;;5.60;;
2099;SDS011;1055;48.854;9.302;2023-04-28T01:34:04;10.20;;;5.43;;
2099;SDS011;1055;48.854;9.302;2023-04-28T01:36:29;9.43;;;5.57;;
2099;SDS011;1055;48.854;9.302;2023-04-28T01:38:56;10.10;;;6.10;;
2099;SDS011;1055;48.854;9.302;2023-04-28T01:41:21;12.27;;;5.83;;
2099;SDS011;1055;48.854;9.302;2023-04-28T01:43:47;8.13;;;5.80;;
2099;SDS011;1055;48.854;9.302;2023-04-28T01:46:12;9.67;;;6.43;;
2099;SDS011;1055;48.854;9.302;2023-04-28T01:48:38;10.33;;;5.97;;
2099;SDS011;1055;48.854;9.302;2023-04-28T01:51:03;8.90;;;5.53;;
2099;SDS011;1055;48.854;9.302;2023-04-28T01:53:29;9.13;;;5.57;;
2099;SDS011;1055;48.854;9.302;2023-04-28T01:55:55;9.27;;;5.40;;
2099;SDS011;1055;48.854;9.302;2023-04-28T01:58:22;9.63;;;6.30;;
2099;SDS011;1055;48.854;9.302;2023-04-28T02:00:48;10.40;;;6.17;;
2099;SDS011;1055;48.854;9.302;2023-04-28T02:03:14;11.40;;;5.63;;
2099;SDS011;1055;48.854;9.302;2023-04-28T02:05:40;9.10;;;5.50;;
2099;SDS011;1055;48.854;9.302;2023-04-28T02:08:05;12.70;;;6.30;;
2099;SDS011;1055;48.854;9.302;2023-04-28T02:10:31;10.33;;;6.00;;
2099;SDS011;1055;48.854;9.302;2023-04-28T02:12:56;10.30;;;6.73;;
2099;SDS011;1055;48.854;9.302;2023-04-28T02:15:22;9.67;;;6.67;;
2099;SDS011;1055;48.854;9.302;2023-04-28T02:17:48;10.50;;;6.03;;
2099;SDS011;1055;48.854;9.302;2023-04-28T02:20:13;11.67;;;7.40;;
2099;SDS011;1055;48.854;9.302;2023-04-28T02:22:39;10.23;;;5.90;;
2099;SDS011;1055;48.854;9.302;2023-04-28T02:25:05;8.80;;;5.95;;
2099;SDS011;1055;48.854;9.302;2023-04-28T02:27:31;10.75;;;5.55;;
2099;SDS011;1055;48.854;9.302;2023-04-28T02:30:00;9.83;;;6.67;;
2099;SDS011;1055;48.854;9.302;2023-04-28T02:32:29;8.80;;;5.70;;
2099;SDS011;1055;48.854;9.302;2023-04-28T02:34:55;10.30;;;6.40;;
2099;SDS011;1055;48.854;9.302;2023-04-28T02:37:21;10.80;;;6.17;;
2099;SDS011;1055;48.854;9.302;2023-04-28T02:39:47;9.37;;;5.90;;
2099;SDS011;1055;48.854;9.302;2023-04-28T02:42:12;10.03;;;6.47;;
2099;SDS011;1055;48.854;9.302;2023-04-28T02:44:38;12.90;;;6.40;;
2099;SDS011;1055;48.854;9.302;2023-04-28T02:47:04;10.07;;;6.30;;
2099;SDS011;1055;48.854;9.302;2023-04-28T02:49:29;8.30;;;5.53;;
2099;SDS011;1055;48.854;9.302;2023-04-28T02:51:55;10.40;;;6.20;;
2099;SDS011;1055;48.854;9.302;2023-04-28T02:54:21;8.73;;;5.53;;
2099;SDS011;1055;48.854;9.302;2023-04-28T02:56:51;8.45;;;5.65;;
2099;SDS011;1055;48.854;9.302;2023-04-28T02:59:21;8.60;;;5.40;;
2099;SDS011;1055;48.854;9.302;2023-04-28T03:01:48;9.50;;;5.77;;
2099;SDS011;1055;48.854;9.302;2023-04-28T03:04:14;9.57;;;6.37;;
2099;SDS011;1055;48.854;9.302;2023-04-28T03:06:40;8.27;;;5.90;;
2099;SDS011;1055;48.854;9.302;2023-04-28T03:09:06;23.58;;;8.77;;
2099;SDS011;1055;48.854;9.302;2023-04-28T03:11:32;17.33;;;8.37;;
2099;SDS011;1055;48.854;9.302;2023-04-28T03:13:57;9.20;;;6.13;;
2099;SDS011;1055;48.854;9.302;2023-04-28T03:16:23;10.73;;;6.10;;
2099;SDS011;1055;48.854;9.302;2023-04-28T03:18:49;10.50;;;5.87;;
2099;SDS011;1055;48.854;9.302;2023-04-28T03:21:14;12.30;;;6.10;;
2099;SDS011;1055;48.854;9.302;2023-04-28T03:23:40;14.13;;;7.33;;
2099;SDS011;1055;48.854;9.302;2023-04-28T03:26:06;11.30;;;6.90;;
2099;SDS011;1055;48.854;9.302;2023-04-28T03:28:31;13.23;;;7.17;;
2099;SDS011;1055;48.854;9.302;2023-04-28T03:30:57;10.37;;;6.20;;
2099;SDS011;1055;48.854;9.302;2023-04-28T03:33:23;13.70;;;8.40;;
2099;SDS011;1055;48.854;9.302;2023-04-28T03:35:48;16.73;;;7.70;;
2099;SDS011;1055;48.854;9.302;2023-04-28T03:38:14;11.50;;;7.40;;
2099;SDS011;1055;48.854;9.302;2023-04-28T03:40:40;13.07;;;7.50;;
2099;SDS011;1055;48.854;9.302;2023-04-28T03:43:06;13.87;;;7.47;;
2099;SDS011;1055;48.854;9.302;2023-04-28T03:45:31;11.27;;;6.93;;
2099;SDS011;1055;48.854;9.302;2023-04-28T03:47:57;14.33;;;8.80;;
2099;SDS011;1055;48.854;9.302;2023-04-28T03:50:23;10.93;;;7.37;;
2099;SDS011;1055;48.854;9.302;2023-04-28T03:52:48;14.17;;;8.43;;
2099;SDS011;1055;48.854;9.302;2023-04-28T03:55:14;12.77;;;8.57;;
2099;SDS011;1055;48.854;9.302;2023-04-28T03:57:40;14.40;;;8.90;;
2099;SDS011;1055;48.854;9.302;2023-04-28T04:00:06;14.73;;;8.57;;
2099;SDS011;1055;48.854;9.302;2023-04-28T04:02:32;13.57;;;8.05;;
2099;SDS011;1055;48.854;9.302;2023-04-28T04:04:58;12.87;;;8.67;;
2099;SDS011;1055;48.854;9.302;2023-04-28T04:07:23;13.80;;;8.63;;
2099;SDS011;1055;48.854;9.302;2023-04-28T04:09:49;12.37;;;8.33;;
2099;SDS011;1055;48.854;9.302;2023-04-28T04:12:15;14.13;;;9.40;;
2099;SDS011;1055;48.854;9.302;2023-04-28T04:14:40;12.10;;;7.83;;
2099;SDS011;1055;48.854;9.302;2023-04-28T04:17:06;10.80;;;7.73;;
2099;SDS011;1055;48.854;9.302;2023-04-28T04:19:31;10.33;;;7.10;;
2099;SDS011;1055;48.854;9.302;2023-04-28T04:21:57;10.03;;;7.23;;
2099;SDS011;1055;48.854;9.302;2023-04-28T04:24:23;10.60;;;7.83;;
2099;SDS011;1055;48.854;9.302;2023-04-28T04:26:48;12.80;;;7.23;;
2099;SDS011;1055;48.854;9.302;2023-04-28T04:29:14;10.37;;;6.90;;
2099;SDS011;1055;48.854;9.302;2023-04-28T04:31:40;11.20;;;8.33;;
2099;SDS011;1055;48.854;9.302;2023-04-28T04:34:05;12.30;;;7.00;;
2099;SDS011;1055;48.854;9.302;2023-04-28T04:36:31;12.27;;;7.80;;
2099;SDS011;1055;48.854;9.302;2023-04-28T04:38:57;15.02;;;8.88;;
2099;SDS011;1055;48.854;9.302;2023-04-28T04:41:24;9.67;;;7.03;;
2099;SDS011;1055;48.854;9.302;2023-04-28T04:43:50;11.75;;;7.68;;
2099;SDS011;1055;48.854;9.302;2023-04-28T04:46:15;11.70;;;8.00;;
2099;SDS011;1055;48.854;9.302;2023-04-28T04:48:41;13.70;;;7.07;;
2099;SDS011;1055;48.854;9.302;2023-04-28T04:51:07;12.83;;;7.20;;
2099;SDS011;1055;48.854;9.302;2023-04-28T04:53:33;11.20;;;7.20;;
2099;SDS011;1055;48.854;9.302;2023-04-28T04:55:59;10.23;;;6.80;;
2099;SDS011;1055;48.854;9.302;2023-04-28T04:58:25;11.20;;;7.30;;
2099;SDS011;1055;48.854;9.302;2023-04-28T05:00:51;13.03;;;6.90;;
2099;SDS011;1055;48.854;9.302;2023-04-28T05:03:16;12.07;;;7.67;;
2099;SDS011;1055;48.854;9.302;2023-04-28T05:05:42;10.83;;;6.40;;
2099;SDS011;1055;48.854;9.302;2023-04-28T05:08:09;11.13;;;7.07;;
2099;SDS011;1055;48.854;9.302;2023-04-28T05:10:35;10.83;;;6.87;;
2099;SDS011;1055;48.854;9.302;2023-04-28T05:13:01;9.47;;;6.80;;
2099;SDS011;1055;48.854;9.302;2023-04-28T05:15:27;11.60;;;7.63;;
2099;SDS011;1055;48.854;9.302;2023-04-28T05:17:53;12.30;;;8.30;;
2099;SDS011;1055;48.854;9.302;2023-04-28T05:20:18;13.23;;;7.77;;
2099;SDS011;1055;48.854;9.302;2023-04-28T05:22:44;12.33;;;7.20;;
2099;SDS011;1055;48.854;9.302;2023-04-28T05:25:10;11.90;;;8.53;;
2099;SDS011;1055;48.854;9.302;2023-04-28T05:27:36;10.17;;;7.07;;
2099;SDS011;1055;48.854;9.302;2023-04-28T05:30:04;8.83;;;6.13;;
2099;SDS011;1055;48.854;9.302;2023-04-28T05:32:32;12.73;;;6.63;;
2099;SDS011;1055;48.854;9.302;2023-04-28T05:34:58;11.10;;;7.32;;
2099;SDS011;1055;48.854;9.302;2023-04-28T05:37:24;11.33;;;6.93;;
2099;SDS011;1055;48.854;9.302;2023-04-28T05:39:49;10.67;;;6.73;;
2099;SDS011;1055;48.854;9.302;2023-04-28T05:42:15;9.17;;;6.43;;
2099;SDS011;1055;48.854;9.302;2023-04-28T05:44:40;12.60;;;9.47;;
2099;SDS011;1055;48.854;9.302;2023-04-28T05:47:06;11.10;;;6.93;;
2099;SDS011;1055;48.854;9.302;2023-04-28T05:49:31;11.30;;;6.20;;
2099;SDS011;1055;48.854;9.302;2023-04-28T05:51:57;9.23;;;6.33;;
2099;SDS011;1055;48.854;9.302;2023-04-28T05:54:23;10.47;;;6.70;;
2099;SDS011;1055;48.854;9.302;2023-04-28T05:56:48;10.20;;;6.97;;
2099;SDS011;1055;48.854;9.302;2023-04-28T05:59:14;11.70;;;6.57;;
2099;SDS011;1055;48.854;9.302;2023-04-28T06:01:40;9.53;;;6.40;;
2099;SDS011;1055;48.854;9.302;2023-04-28T06:04:06;11.20;;;6.50;;
2099;SDS011;1055;48.854;9.302;2023-04-28T06:06:31;12.30;;;7.80;;
2099;SDS011;1055;48.854;9.302;2023-04-28T06:08:58;12.63;;;7.95;;
2099;SDS011;1055;48.854;9.302;2023-04-28T06:11:23;11.73;;;7.83;;
2099;SDS011;1055;48.854;9.302;2023-04-28T06:13:49;12.30;;;7.70;;
2099;SDS011;1055;48.854;9.302;2023-04-28T06:16:15;12.40;;;8.40;;
2099;SDS011;1055;48.854;9.302;2023-04-28T06:18:41;12.57;;;8.05;;
2099;SDS011;1055;48.854;9.302;2023-04-28T06:21:07;13.20;;;8.50;;
2099;SDS011;1055;48.854;9.302;2023-04-28T06:23:32;11.00;;;7.53;;
2099;SDS011;1055;48.854;9.302;2023-04-28T06:25:58;12.53;;;8.87;;
2099;SDS011;1055;48.854;9.302;2023-04-28T06:28:24;13.10;;;7.88;;
2099;SDS011;1055;48.854;9.302;2023-04-28T06:30:50;11.43;;;8.50;;
2099;SDS011;1055;48.854;9.302;2023-04-28T06:33:15;12.07;;;8.17;;
2099;SDS011;1055;48.854;9.302;2023-04-28T06:35:41;10.90;;;7.10;;
2099;SDS011;1055;48.854;9.302;2023-04-28T06:38:06;12.80;;;7.23;;
2099;SDS011;1055;48.854;9.302;2023-04-28T06:40:32;11.20;;;7.20;;
2099;SDS011;1055;48.854;9.302;2023-04-28T06:42:58;10.87;;;7.47;;
2099;SDS011;1055;48.854;9.302;2023-04-28T06:45:23;10.57;;;6.87;;
2099;SDS011;1055;48.854;9.302;2023-04-28T06:47:49;11.90;;;7.57;;
2099;SDS011;1055;48.854;9.302;2023-04-28T06:50:15;12.97;;;7.80;;
2099;SDS011;1055;48.854;9.302;2023-04-28T06:52:41;11.93;;;6.93;;
2099;SDS011;1055;48.854;9.302;2023-04-28T06:55:07;14.20;;;8.73;;
2099;SDS011;1055;48.854;9.302;2023-04-28T06:57:33;11.67;;;7.43;;
2099;SDS011;1055;48.854;9.302;2023-04-28T07:00:05;12.33;;;7.47;;
2099;SDS011;1055;48.854;9.302;2023-04-28T07:02:55;10.13;;;6.70;;
2099;SDS011;1055;48.854;9.302;2023-04-28T07:05:21;12.50;;;8.17;;
2099;SDS011;1055;48.854;9.302;2023-04-28T07:07:46;10.40;;;7.07;;
2099;SDS011;1055;48.854;9.302;2023-04-28T07:10:12;12.80;;;7.77;;
2099;SDS011;1055;48.854;9.302;2023-04-28T07:12:39;11.53;;;6.83;;
2099;SDS011;1055;48.854;9.302;2023-04-28T07:15:05;10.23;;;7.03;;
2099;SDS011;1055;48.854;9.302;2023-04-28T07:17:31;10.53;;;6.83;;
2099;SDS011;1055;48.854;9.302;2023-04-28T07:19:57;10.83;;;7.50;;
2099;SDS011;1055;48.854;9.302;2023-04-28T07:22:23;10.87;;;7.53;;
2099;SDS011;1055;48.854;9.302;2023-04-28T07:24:48;11.97;;;7.70;;
2099;SDS011;1055;48.854;9.302;2023-04-28T07:27:14;12.43;;;7.93;;
2099;SDS011;1055;48.854;9.302;2023-04-28T07:29:40;14.40;;;8.50;;
2099;SDS011;1055;48.854;9.302;2023-04-28T07:32:06;11.53;;;7.80;;
2099;SDS011;1055;48.854;9.302;2023-04-28T07:34:35;12.63;;;7.93;;
2099;SDS011;1055;48.854;9.302;2023-04-28T07:37:01;14.40;;;7.60;;
2099;SDS011;1055;48.854;9.302;2023-04-28T07:39:28;11.30;;;7.30;;
2099;SDS011;1055;48.854;9.302;2023-04-28T07:41:56;11.77;;;7.60;;
2099;SDS011;1055;48.854;9.302;2023-04-28T07:44:22;14.10;;;8.00;;
2099;SDS011;1055;48.854;9.302;2023-04-28T07:46:48;14.47;;;8.63;;
2099;SDS011;1055;48.854;9.302;2023-04-28T07:49:14;12.60;;;8.83;;
2099;SDS011;1055;48.854;9.302;2023-04-28T07:51:40;12.03;;;9.00;;
2099;SDS011;1055;48.854;9.302;2023-04-28T07:54:05;15.53;;;9.87;;
2099;SDS011;1055;48.854;9.302;2023-04-28T07:56:31;11.93;;;7.73;;
2099;SDS011;1055;48.854;9.302;2023-04-28T07:58:57;11.70;;;8.10;;
2099;SDS011;1055;48.854;9.302;2023-04-28T08:01:22;11.87;;;6.90;;
2099;SDS011;1055;48.854;9.302;2023-04-28T08:03:48;10.80;;;7.30;;
2099;SDS011;1055;48.854;9.302;2023-04-28T08:06:14;9.83;;;6.07;;
2099;SDS011;1055;48.854;9.302;2023-04-28T08:08:39;9.70;;;6.07;;
2099;SDS011;1055;48.854;9.302;2023-04-28T08:11:05;11.67;;;7.70;;
2099;SDS011;1055;48.854;9.302;2023-04-28T08:13:32;11.27;;;6.70;;
2099;SDS011;1055;48.854;9.302;2023-04-28T08:15:58;11.27;;;7.27;;
2099;SDS011;1055;48.854;9.302;2023-04-28T08:18:27;9.80;;;6.57;;
2099;SDS011;1055;48.854;9.302;2023-04-28T08:20:52;12.17;;;6.50;;
2099;SDS011;1055;48.854;9.302;2023-04-28T08:23:18;12.43;;;7.00;;
2099;SDS011;1055;48.854;9.302;2023-04-28T08:25:45;9.50;;;5.93;;
2099;SDS011;1055;48.854;9.302;2023-04-28T08:28:11;9.67;;;6.40;;
2099;SDS011;1055;48.854;9.302;2023-04-28T08:30:37;16.20;;;9.10;;
2099;SDS011;1055;48.854;9.302;2023-04-28T08:33:03;10.07;;;6.50;;
2099;SDS011;1055;48.854;9.302;2023-04-28T08:35:29;8.10;;;5.63;;
2099;SDS011;1055;48.854;9.302;2023-04-28T08:37:55;9.47;;;6.50;;
2099;SDS011;1055;48.854;9.302;2023-04-28T08:40:21;10.10;;;6.50;;
2099;SDS011;1055;48.854;9.302;2023-04-28T08:42:48;9.97;;;5.83;;
2099;SDS011;1055;48.854;9.302;2023-04-28T08:45:14;8.80;;;5.50;;
2099;SDS011;1055;48.854;9.302;2023-04-28T08:47:40;10.43;;;5.60;;
2099;SDS011;1055;48.854;9.302;2023-04-28T08:50:10;11.57;;;6.47;;
2099;SDS011;1055;48.854;9.302;2023-04-28T08:52:36;11.70;;;6.80;;
2099;SDS011;1055;48.854;9.302;2023-04-28T08:55:07;9.80;;;6.30;;
2099;SDS011;1055;48.854;9.302;2023-04-28T09:00:16;11.10;;;6.90;;
2099;SDS011;1055;48.854;9.302;2023-04-28T09:02:42;11.83;;;7.63;;
2099;SDS011;1055;48.854;9.302;2023-04-28T09:05:08;11.40;;;7.73;;
2099;SDS011;1055;48.854;9.302;2023-04-28T09:07:34;11.17;;;7.47;;
2099;SDS011;1055;48.854;9.302;2023-04-28T09:10:14;13.23;;;8.57;;
2099;SDS011;1055;48.854;9.302;2023-04-28T09:12:40;9.90;;;7.13;;
2099;SDS011;1055;48.854;9.302;2023-04-28T09:15:05;10.40;;;6.90;;
2099;SDS011;1055;48.854;9.302;2023-04-28T09:17:45;13.40;;;8.40;;
2099;SDS011;1055;48.854;9.302;2023-04-28T09:20:24;12.47;;;9.20;;
2099;SDS011;1055;48.854;9.302;2023-04-28T09:22:52;11.50;;;7.97;;
2099;SDS011;1055;48.854;9.302;2023-04-28T09:25:19;13.37;;;9.60;;
2099;SDS011;1055;48.854;9.302;2023-04-28T09:27:51;13.20;;;11.60;;
2099;SDS011;1055;48.854;9.302;2023-04-28T09:30:17;14.47;;;8.73;;
2099;SDS011;1055;48.854;9.302;2023-04-28T09:32:43;12.33;;;8.70;;
2099;SDS011;1055;48.854;9.302;2023-04-28T09:35:08;13.27;;;8.50;;
2099;SDS011;1055;48.854;9.302;2023-04-28T09:37:34;12.30;;;8.90;;
2099;SDS011;1055;48.854;9.302;2023-04-28T09:40:05;12.23;;;9.07;;
2099;SDS011;1055;48.854;9.302;2023-04-28T09:42:36;11.33;;;9.13;;
2099;SDS011;1055;48.854;9.302;2023-04-28T09:45:10;12.67;;;8.97;;
2099;SDS011;1055;48.854;9.302;2023-04-28T09:47:38;14.90;;;10.33;;
2099;SDS011;1055;48.854;9.302;2023-04-28T09:50:06;13.10;;;10.30;;
2099;SDS011;1055;48.854;9.302;2023-04-28T09:52:35;12.73;;;10.83;;
2099;SDS011;1055;48.854;9.302;2023-04-28T09:55:02;14.63;;;11.70;;
2099;SDS011;1055;48.854;9.302;2023-04-28T09:57:30;12.80;;;10.07;;
2099;SDS011;1055;48.854;9.302;2023-04-28T09:59:59;15.20;;;12.30;;
2099;SDS011;1055;48.854;9.302;2023-04-28T10:02:27;16.93;;;13.40;;
2099;SDS011;1055;48.854;9.302;2023-04-28T10:04:53;15.03;;;12.17;;
2099;SDS011;1055;48.854;9.302;2023-04-28T10:07:19;15.77;;;13.07;;
2099;SDS011;1055;48.854;9.302;2023-04-28T10:09:48;18.17;;;13.67;;
2099;SDS011;1055;48.854;9.302;2023-04-28T10:12:15;15.60;;;13.20;;
2099;SDS011;1055;48.854;9.302;2023-04-28T10:14:42;16.03;;;12.80;;
2099;SDS011;1055;48.854;9.302;2023-04-28T10:17:09;17.90;;;14.10;;
2099;SDS011;1055;48.854;9.302;2023-04-28T10:19:35;19.00;;;16.20;;
2099;SDS011;1055;48.854;9.302;2023-04-28T10:27:36;18.60;;;13.83;;
2099;SDS011;1055;48.854;9.302;2023-04-28T10:32:39;20.27;;;15.97;;
2099;SDS011;1055;48.854;9.302;2023-04-28T10:40:34;19.60;;;14.67;;
2099;SDS011;1055;48.854;9.302;2023-04-28T10:43:01;15.77;;;13.07;;
2099;SDS011;1055;48.854;9.302;2023-04-28T10:48:17;13.67;;;11.00;;
2099;SDS011;1055;48.854;9.302;2023-04-28T10:56:22;11.60;;;8.33;;
2099;SDS011;1055;48.854;9.302;2023-04-28T10:58:53;12.53;;;10.00;;
2099;SDS011;1055;48.854;9.302;2023-04-28T11:08:50;15.40;;;9.13;;
2099;SDS011;1055;48.854;9.302;2023-04-28T11:11:17;14.50;;;9.77;;
2099;SDS011;1055;48.854;9.302;2023-04-28T11:13:44;11.70;;;7.97;;
2099;SDS011;1055;48.854;9.302;2023-04-28T11:16:14;9.40;;;6.30;;
2099;SDS011;1055;48.854;9.302;2023-04-28T11:18:57;9.40;;;5.00;;
2099;SDS011;1055;48.854;9.302;2023-04-28T11:21:28;8.90;;;4.40;;
2099;SDS011;1055;48.854;9.302;2023-04-28T11:23:55;8.83;;;5.53;;
2099;SDS011;1055;48.854;9.302;2023-04-28T11:26:22;8.00;;;4.00;;
2099;SDS011;1055;48.854;9.302;2023-04-28T11:28:49;8.07;;;4.03;;
2099;SDS011;1055;48.854;9.302;2023-04-28T11:31:17;10.03;;;4.50;;
2099;SDS011;1055;48.854;9.302;2023-04-28T11:33:45;7.80;;;4.03;;
2099;SDS011;1055;48.854;9.302;2023-04-28T11:36:37;7.57;;;4.00;;
2099;SDS011;1055;48.854;9.302;2023-04-28T11:39:04;7.70;;;4.30;;
2099;SDS011;1055;48.854;9.302;2023-04-28T11:41:31;6.37;;;3.20;;
2099;SDS011;1055;48.854;9.302;2023-04-28T11:44:13;6.43;;;3.00;;
2099;SDS011;1055;48.854;9.302;2023-04-28T11:49:27;7.60;;;3.40;;
2099;SDS011;1055;48.854;9.302;2023-04-28T11:51:56;6.07;;;3.00;;
2099;SDS011;1055;48.854;9.302;2023-04-28T11:54:25;6.43;;;2.40;;
2099;SDS011;1055;48.854;9.302;2023-04-28T11:56:52;6.53;;;3.30;;
2099;SDS011;1055;48.854;9.302;2023-04-28T11:59:24;10.03;;;5.53;;
2099;SDS011;1055;48.854;9.302;2023-04-28T12:01:55;8.07;;;5.10;;
2099;SDS011;1055;48.854;9.302;2023-04-28T12:04:30;8.10;;;4.57;;
2099;SDS011;1055;48.854;9.302;2023-04-28T12:09:30;6.57;;;3.23;;
2099;SDS011;1055;48.854;9.302;2023-04-28T12:11:57;5.90;;;2.17;;
2099;SDS011;1055;48.854;9.302;2023-04-28T12:14:28;5.07;;;1.83;;
2099;SDS011;1055;48.854;9.302;2023-04-28T12:16:59;6.60;;;2.20;;
2099;SDS011;1055;48.854;9.302;2023-04-28T12:19:25;5.30;;;1.87;;
2099;SDS011;1055;48.854;9.302;2023-04-28T12:21:57;5.10;;;1.70;;
2099;SDS011;1055;48.854;9.302;2023-04-28T12:24:23;5.50;;;2.07;;
2099;SDS011;1055;48.854;9.302;2023-04-28T12:26:50;5.83;;;3.07;;
2099;SDS011;1055;48.854;9.302;2023-04-28T12:29:35;14.53;;;12.40;;
2099;SDS011;1055;48.854;9.302;2023-04-28T12:32:07;6.50;;;2.63;;
2099;SDS011;1055;48.854;9.302;2023-04-28T12:34:35;8.10;;;2.97;;
2099;SDS011;1055;48.854;9.302;2023-04-28T12:37:03;6.20;;;2.90;;
2099;SDS011;1055;48.854;9.302;2023-04-28T12:39:29;9.30;;;7.07;;
2099;SDS011;1055;48.854;9.302;2023-04-28T12:41:56;8.60;;;5.90;;
2099;SDS011;1055;48.854;9.302;2023-04-28T12:44:23;8.43;;;5.70;;
2099;SDS011;1055;48.854;9.302;2023-04-28T12:46:50;6.80;;;3.53;;
2099;SDS011;1055;48.854;9.302;2023-04-28T12:49:16;6.63;;;3.30;;
2099;SDS011;1055;48.854;9.302;2023-04-28T12:51:42;6.03;;;1.50;;
2099;SDS011;1055;48.854;9.302;2023-04-28T12:54:07;5.07;;;1.47;;
2099;SDS011;1055;48.854;9.302;2023-04-28T12:56:33;5.67;;;2.10;;
2099;SDS011;1055;48.854;9.302;2023-04-28T12:58:59;7.00;;;3.80;;
2099;SDS011;1055;48.854;9.302;2023-04-28T13:01:28;6.23;;;3.20;;
2099;SDS011;1055;48.854;9.302;2023-04-28T13:03:54;6.43;;;2.83;;
2099;SDS011;1055;48.854;9.302;2023-04-28T13:06:20;7.07;;;2.77;;
2099;SDS011;1055;48.854;9.302;2023-04-28T13:08:46;4.57;;;1.00;;
2099;SDS011;1055;48.854;9.302;2023-04-28T13:11:11;5.00;;;0.80;;
2099;SDS011;1055;48.854;9.302;2023-04-28T13:13:37;4.83;;;0.93;;
2099;SDS011;1055;48.854;9.302;2023-04-28T13:16:04;4.93;;;1.20;;
2099;SDS011;1055;48.854;9.302;2023-04-28T13:18:30;6.67;;;0.90;;
2099;SDS011;1055;48.854;9.302;2023-04-28T13:20:56;4.50;;;0.80;;
2099;SDS011;1055;48.854;9.302;2023-04-28T13:23:22;4.60;;;1.03;;
2099;SDS011;1055;48.854;9.302;2023-04-28T13:25:48;5.07;;;0.97;;
2099;SDS011;1055;48.854;9.302;2023-04-28T13:28:14;4.90;;;0.97;;
2099;SDS011;1055;48.854;9.302;2023-04-28T13:30:40;6.20;;;1.23;;
2099;SDS011;1055;48.854;9.302;2023-04-28T13:33:06;5.00;;;1.10;;
2099;SDS011;1055;48.854;9.302;2023-04-28T13:35:32;4.50;;;1.03;;
2099;SDS011;1055;48.854;9.302;2023-04-28T13:37:57;5.67;;;1.40;;
2099;SDS011;1055;48.854;9.302;2023-04-28T13:40:28;5.57;;;1.00;;
2099;SDS011;1055;48.854;9.302;2023-04-28T13:42:54;4.97;;;1.10;;
2099;SDS011;1055;48.854;9.302;2023-04-28T13:45:20;5.80;;;1.23;;
2099;SDS011;1055;48.854;9.302;2023-04-28T13:47:46;4.60;;;1.00;;
2099;SDS011;1055;48.854;9.302;2023-04-28T13:50:13;4.70;;;1.17;;
2099;SDS011;1055;48.854;9.302;2023-04-28T13:52:38;5.20;;;1.30;;
2099;SDS011;1055;48.854;9.302;2023-04-28T13:55:04;4.40;;;1.10;;
2099;SDS011;1055;48.854;9.302;2023-04-28T13:57:31;5.00;;;1.20;;
2099;SDS011;1055;48.854;9.302;2023-04-28T13:59:56;4.43;;;1.07;;
2099;SDS011;1055;48.854;9.302;2023-04-28T14:02:22;4.97;;;1.40;;
2099;SDS011;1055;48.854;9.302;2023-04-28T14:04:49;5.30;;;1.53;;
2099;SDS011;1055;48.854;9.302;2023-04-28T14:07:17;4.63;;;0.87;;
2099;SDS011;1055;48.854;9.302;2023-04-28T14:09:44;5.37;;;1.30;;
2099;SDS011;1055;48.854;9.302;2023-04-28T14:12:12;4.40;;;1.10;;
2099;SDS011;1055;48.854;9.302;2023-04-28T14:14:40;5.67;;;1.30;;
2099;SDS011;1055;48.854;9.302;2023-04-28T14:17:10;7.23;;;1.70;;
2099;SDS011;1055;48.854;9.302;2023-04-28T14:19:40;5.40;;;1.70;;
2099;SDS011;1055;48.854;9.302;2023-04-28T14:22:06;8.43;;;2.23;;
2099;SDS011;1055;48.854;9.302;2023-04-28T14:24:33;8.37;;;1.90;;
2099;SDS011;1055;48.854;9.302;2023-04-28T14:26:58;7.27;;;2.60;;
2099;SDS011;1055;48.854;9.302;2023-04-28T14:29:24;6.47;;;1.47;;
2099;SDS011;1055;48.854;9.302;2023-04-28T14:31:50;4.87;;;1.60;;
2099;SDS011;1055;48.854;9.302;2023-04-28T14:34:15;6.33;;;2.73;;
2099;SDS011;1055;48.854;9.302;2023-04-28T14:36:41;5.60;;;2.00;;
2099;SDS011;1055;48.854;9.302;2023-04-28T14:39:07;5.57;;;1.60;;
2099;SDS011;1055;48.854;9.302;2023-04-28T14:41:32;7.03;;;2.40;;
2099;SDS011;1055;48.854;9.302;2023-04-28T14:43:58;7.03;;;2.73;;
2099;SDS011;1055;48.854;9.302;2023-04-28T14:46:24;5.27;;;1.10;;
2099;SDS011;1055;48.854;9.302;2023-04-28T14:48:50;5.63;;;1.50;;
2099;SDS011;1055;48.854;9.302;2023-04-28T14:51:17;5.10;;;1.33;;
2099;SDS011;1055;48.854;9.302;2023-04-28T14:53:43;7.13;;;2.23;;
2099;SDS011;1055;48.854;9.302;2023-04-28T14:56:08;5.90;;;1.60;;
2099;SDS011;1055;48.854;9.302;2023-04-28T14:58:34;8.47;;;1.93;;
2099;SDS011;1055;48.854;9.302;2023-04-28T15:01:00;6.30;;;2.03;;
2099;SDS011;1055;48.854;9.302;2023-04-28T15:03:27;6.17;;;2.03;;
2099;SDS011;1055;48.854;9.302;2023-04-28T15:05:53;8.10;;;1.37;;
2099;SDS011;1055;48.854;9.302;2023-04-28T15:08:19;8.27;;;1.93;;
2099;SDS011;1055;48.854;9.302;2023-04-28T15:10:45;6.90;;;2.00;;
2099;SDS011;1055;48.854;9.302;2023-04-28T15:13:11;7.00;;;2.10;;
2099;SDS011;1055;48.854;9.302;2023-04-28T15:15:37;7.20;;;4.43;;
2099;SDS011;1055;48.854;9.302;2023-04-28T15:18:03;6.73;;;2.33;;
2099;SDS011;1055;48.854;9.302;2023-04-28T15:20:29;6.33;;;1.70;;
2099;SDS011;1055;48.854;9.302;2023-04-28T15:23:01;5.70;;;1.57;;
2099;SDS011;1055;48.854;9.302;2023-04-28T15:25:27;5.60;;;1.90;;
2099;SDS011;1055;48.854;9.302;2023-04-28T15:27:52;6.70;;;2.00;;
2099;SDS011;1055;48.854;9.302;2023-04-28T15:30:18;5.50;;;2.20;;
2099;SDS011;1055;48.854;9.302;2023-04-28T15:32:44;6.50;;;2.30;;
2099;SDS011;1055;48.854;9.302;2023-04-28T15:35:10;7.10;;;3.13;;
2099;SDS011;1055;48.854;9.302;2023-04-28T15:40:02;8.50;;;3.37;;
2099;SDS011;1055;48.854;9.302;2023-04-28T15:42:29;6.47;;;2.73;;
2099;SDS011;1055;48.854;9.302;2023-04-28T15:44:55;8.00;;;2.60;;